Long Lake, Michigan
Current Conditions -  °F | °C
As of 4:13 AM on Friday 28 Nov 2014 (Local Time) from KOSC Reporting Station
Overcast Overcast  
Wind Chill:   Ceiling: 3400
Heat Index: 15°   Visibility: 10mi
Dew Point: 12°   Wind: 6mph
Humidity: 86%   Direction: 240°WSW
Pressure: 30.3"   Gusts: NA
Location:  44.42°N, 83.87°W
Report Text: KOSC 280913Z AUTO 24005KT 10SM OVC034 M09/M11 A3030 RMK AO2 T10921112
Loading
Personal Weather Stations






























Interactive Weather Map New forecast layout! Learn more

10-Day Weather Forecast

Advertisements
Track Severe Weather on mobile